createdAt,value
2023-01-17T00:00:44.144Z,2.35
2023-01-17T00:01:47.295Z,2.35
2023-01-17T00:02:50.501Z,2.36
2023-01-17T00:04:10.751Z,2.37
2023-01-17T00:05:31.127Z,2.36
2023-01-17T00:06:51.680Z,2.37
2023-01-17T00:08:11.880Z,2.37
2023-01-17T00:09:33.594Z,2.36
2023-01-17T00:10:40.443Z,2.37
2023-01-17T00:11:42.372Z,2.38
2023-01-17T00:12:47.740Z,2.38
2023-01-17T00:13:49.945Z,2.37
2023-01-17T00:14:54.031Z,2.35
2023-01-17T00:15:56.858Z,2.33
2023-01-17T00:17:01.171Z,2.30
2023-01-17T00:18:03.958Z,2.26
2023-01-17T00:19:24.541Z,2.24
2023-01-17T00:20:47.394Z,2.19
2023-01-17T00:22:07.627Z,2.17
2023-01-17T00:23:32.206Z,2.14
2023-01-17T00:24:53.064Z,2.15
2023-01-17T00:26:04.835Z,2.14
2023-01-17T00:27:13.115Z,2.16
2023-01-17T00:28:15.330Z,2.14
2023-01-17T00:29:17.050Z,2.14
2023-01-17T00:30:19.361Z,2.14
2023-01-17T00:31:21.162Z,2.14
2023-01-17T00:32:24.320Z,2.18
2023-01-17T00:33:26.432Z,2.17
2023-01-17T00:34:28.085Z,2.18
2023-01-17T00:35:31.263Z,2.20
2023-01-17T00:36:33.174Z,2.22
2023-01-17T00:37:35.012Z,2.22
2023-01-17T00:38:38.140Z,2.24
2023-01-17T00:39:39.922Z,2.25
2023-01-17T00:40:42.954Z,2.26
2023-01-17T00:41:44.672Z,2.28
2023-01-17T00:42:47.547Z,2.29
2023-01-17T00:44:07.853Z,2.32
2023-01-17T00:45:28.614Z,2.32
2023-01-17T00:46:49.273Z,2.33
2023-01-17T00:48:10.892Z,2.34
2023-01-17T00:49:31.331Z,2.34
2023-01-17T00:50:51.957Z,2.34
2023-01-17T00:52:12.763Z,2.33
2023-01-17T00:53:33.050Z,2.33
2023-01-17T00:54:53.368Z,2.32
2023-01-17T00:56:13.662Z,2.31
2023-01-17T00:57:33.875Z,2.30
2023-01-17T00:58:54.433Z,2.29
2023-01-17T01:00:14.927Z,2.29
2023-01-17T01:01:35.570Z,2.27
2023-01-17T01:02:56.676Z,2.27
2023-01-17T01:04:18.168Z,2.27
2023-01-17T01:05:38.986Z,2.27
2023-01-17T01:06:59.193Z,2.27
2023-01-17T01:08:19.805Z,2.27
2023-01-17T01:09:40.057Z,2.26
2023-01-17T01:11:00.439Z,2.25
2023-01-17T01:12:20.650Z,2.25
2023-01-17T01:13:43.481Z,2.24
2023-01-17T01:15:04.003Z,2.21
2023-01-17T01:16:43.024Z,2.19
2023-01-17T01:18:03.147Z,2.18
2023-01-17T01:19:24.638Z,2.17
2023-01-17T01:20:44.923Z,2.17
2023-01-17T01:22:04.952Z,2.17
2023-01-17T01:23:25.135Z,2.18
2023-01-17T01:24:45.407Z,2.20
2023-01-17T01:26:06.360Z,2.21
2023-01-17T01:27:26.577Z,2.19
2023-01-17T01:28:46.993Z,2.18
2023-01-17T01:30:07.418Z,2.19
2023-01-17T01:31:27.825Z,2.17
2023-01-17T01:32:51.007Z,2.19
2023-01-17T01:33:54.557Z,2.20
2023-01-17T01:34:57.701Z,2.21
2023-01-17T01:36:00.457Z,2.23
2023-01-17T01:37:02.554Z,2.24
2023-01-17T01:38:05.324Z,2.24
2023-01-17T01:39:08.380Z,2.25
2023-01-17T01:40:11.516Z,2.27
2023-01-17T01:41:14.416Z,2.27
2023-01-17T01:42:17.144Z,2.27
2023-01-17T01:43:22.412Z,2.27
2023-01-17T01:44:43.876Z,2.28
2023-01-17T01:45:49.954Z,2.26
2023-01-17T01:46:51.905Z,2.25
2023-01-17T01:47:56.443Z,2.27
2023-01-17T01:49:01.598Z,2.28
2023-01-17T01:50:08.472Z,2.29
2023-01-17T01:51:13.375Z,2.30
2023-01-17T01:52:15.932Z,2.31
2023-01-17T01:53:19.837Z,2.33
2023-01-17T01:54:24.507Z,2.34
2023-01-17T01:55:31.076Z,2.35
2023-01-17T01:56:33.636Z,2.35
2023-01-17T01:57:41.444Z,2.36
2023-01-17T01:58:47.089Z,2.37
2023-01-17T01:59:53.084Z,2.36
2023-01-17T02:00:54.889Z,2.36
2023-01-17T02:01:58.175Z,2.36
2023-01-17T02:03:04.530Z,2.35
2023-01-17T02:04:10.000Z,2.34
2023-01-17T02:05:13.863Z,2.32
2023-01-17T02:06:27.157Z,2.31
2023-01-17T02:07:32.823Z,2.28
2023-01-17T02:08:35.786Z,2.28
2023-01-17T02:09:37.744Z,2.25
2023-01-17T02:10:41.809Z,2.24
2023-01-17T02:11:46.775Z,2.23
2023-01-17T02:12:49.529Z,2.19
2023-01-17T02:13:52.315Z,2.16
2023-01-17T02:14:54.128Z,2.12
2023-01-17T02:16:02.359Z,2.07
2023-01-17T02:17:12.518Z,2.03
2023-01-17T02:18:22.469Z,1.97
2023-01-17T02:19:38.930Z,1.91
2023-01-17T02:20:58.867Z,1.84
2023-01-17T02:22:15.407Z,1.77
2023-01-17T02:23:48.043Z,1.68
2023-01-17T02:25:09.647Z,1.61
2023-01-17T02:26:28.891Z,1.57
2023-01-17T02:27:40.512Z,1.54
2023-01-17T02:28:56.125Z,1.52
2023-01-17T02:30:24.773Z,1.48
2023-01-17T02:31:28.085Z,1.42
2023-01-17T02:32:51.585Z,1.36
2023-01-17T02:33:58.858Z,1.29
2023-01-17T02:35:03.873Z,1.24
2023-01-17T02:36:10.567Z,1.18
2023-01-17T02:37:19.312Z,1.10
2023-01-17T02:38:31.637Z,0.98
2023-01-17T02:39:38.545Z,0.89
2023-01-17T02:40:43.446Z,0.80
2023-01-17T02:41:48.819Z,0.73
2023-01-17T02:42:55.289Z,0.68
2023-01-17T02:43:58.568Z,0.63
2023-01-17T02:45:02.552Z,0.56
2023-01-17T02:46:09.575Z,0.50
2023-01-17T02:47:23.159Z,0.40
2023-01-17T02:48:29.628Z,0.33
2023-01-17T02:49:32.145Z,0.27
2023-01-17T02:50:59.950Z,0.22
2023-01-17T02:52:13.470Z,0.15
2023-01-17T02:53:27.868Z,0.09
2023-01-17T02:54:54.072Z,0.02
2023-01-17T02:56:25.843Z,-0.07
2023-01-17T02:57:45.401Z,-0.14
2023-01-17T02:59:01.671Z,-0.23
2023-01-17T03:00:09.523Z,-0.28
2023-01-17T03:01:20.990Z,-0.33
2023-01-17T03:02:27.013Z,-0.39
2023-01-17T03:03:33.687Z,-0.43
2023-01-17T03:04:38.868Z,-0.48
2023-01-17T03:05:43.270Z,-0.50
2023-01-17T03:06:49.664Z,-0.56
2023-01-17T03:07:51.725Z,-0.61
2023-01-17T03:08:55.089Z,-0.67
2023-01-17T03:10:00.027Z,-0.71
2023-01-17T03:11:03.178Z,-0.75
2023-01-17T03:12:05.849Z,-0.80
2023-01-17T03:13:09.023Z,-0.84
2023-01-17T03:14:11.108Z,-0.90
2023-01-17T03:15:17.450Z,-0.92
2023-01-17T03:16:23.892Z,-0.97
2023-01-17T03:17:30.963Z,-1.00
2023-01-17T03:18:32.770Z,-1.03
2023-01-17T03:19:54.099Z,-1.06
2023-01-17T03:20:57.219Z,-1.06
2023-01-17T03:21:59.019Z,-1.08
2023-01-17T03:23:02.304Z,-1.08
2023-01-17T03:24:05.525Z,-1.07
2023-01-17T03:25:08.336Z,-1.07
2023-01-17T03:26:11.183Z,-1.07
2023-01-17T03:27:13.347Z,-1.06
2023-01-17T03:28:16.220Z,-1.01
2023-01-17T03:29:18.155Z,-0.98
2023-01-17T03:30:22.898Z,-0.93
2023-01-17T03:31:26.332Z,-0.88
2023-01-17T03:32:29.899Z,-0.83
2023-01-17T03:33:31.711Z,-0.79
2023-01-17T03:34:34.547Z,-0.75
2023-01-17T03:35:36.818Z,-0.77
2023-01-17T03:36:39.866Z,-0.79
2023-01-17T03:37:41.824Z,-0.83
2023-01-17T03:38:44.735Z,-0.88
2023-01-17T03:39:46.505Z,-0.92
2023-01-17T03:40:49.214Z,-0.97
2023-01-17T03:41:51.015Z,-1.01
2023-01-17T03:42:54.559Z,-1.05
2023-01-17T03:43:56.524Z,-1.09
2023-01-17T03:44:59.387Z,-1.11
2023-01-17T03:46:05.447Z,-1.08
2023-01-17T03:47:11.928Z,-1.04
2023-01-17T03:48:14.256Z,-1.00
2023-01-17T03:49:17.170Z,-0.96
2023-01-17T03:50:18.917Z,-0.93
2023-01-17T03:51:23.603Z,-0.89
2023-01-17T03:52:25.392Z,-0.87
2023-01-17T03:53:28.322Z,-0.83
2023-01-17T03:54:30.262Z,-0.81
2023-01-17T03:55:33.085Z,-0.81
2023-01-17T03:56:34.906Z,-0.79
2023-01-17T03:57:38.048Z,-0.78
2023-01-17T03:58:39.840Z,-0.78
2023-01-17T03:59:42.798Z,-0.78
2023-01-17T04:00:45.086Z,-0.80
2023-01-17T04:01:48.121Z,-0.81
2023-01-17T04:02:51.498Z,-0.82
2023-01-17T04:03:55.357Z,-0.83
2023-01-17T04:04:57.171Z,-0.82
2023-01-17T04:06:00.257Z,-0.85
2023-01-17T04:07:22.880Z,-0.88
2023-01-17T04:08:26.810Z,-0.91
2023-01-17T04:09:33.928Z,-0.93
2023-01-17T04:10:35.710Z,-0.97
2023-01-17T04:11:39.545Z,-1.01
2023-01-17T04:12:41.609Z,-1.05
2023-01-17T04:13:44.471Z,-1.06
2023-01-17T04:14:47.059Z,-1.09
2023-01-17T04:15:51.192Z,-1.10
2023-01-17T04:16:53.090Z,-1.11
2023-01-17T04:17:57.639Z,-1.14
2023-01-17T04:18:59.454Z,-1.15
2023-01-17T04:20:02.249Z,-1.18
2023-01-17T04:21:04.549Z,-1.21
2023-01-17T04:22:07.401Z,-1.25
2023-01-17T04:23:09.212Z,-1.29
2023-01-17T04:24:12.044Z,-1.33
2023-01-17T04:25:13.937Z,-1.37
2023-01-17T04:26:16.945Z,-1.43
2023-01-17T04:27:19.036Z,-1.47
2023-01-17T04:28:22.074Z,-1.50
2023-01-17T04:29:23.987Z,-1.50
2023-01-17T04:30:27.975Z,-1.45
2023-01-17T04:31:30.120Z,-1.39
2023-01-17T04:32:32.871Z,-1.32
2023-01-17T04:33:36.544Z,-1.24
2023-01-17T04:34:39.440Z,-1.15
2023-01-17T04:35:41.436Z,-1.10
2023-01-17T04:36:44.734Z,-1.04
2023-01-17T04:37:46.640Z,-1.00
2023-01-17T04:38:49.567Z,-0.95
2023-01-17T04:39:51.573Z,-0.93
2023-01-17T04:40:54.781Z,-0.91
2023-01-17T04:41:56.634Z,-0.90
2023-01-17T04:43:00.824Z,-0.89
2023-01-17T04:44:02.694Z,-0.89
2023-01-17T04:45:06.472Z,-0.90
2023-01-17T04:46:11.020Z,-0.89
2023-01-17T04:47:13.829Z,-0.91
2023-01-17T04:48:15.599Z,-0.94
2023-01-17T04:49:19.895Z,-0.93
2023-01-17T04:50:21.691Z,-0.93
2023-01-17T04:51:24.751Z,-0.94
2023-01-17T04:52:26.972Z,-0.95
2023-01-17T04:53:30.086Z,-0.94
2023-01-17T04:54:32.974Z,-0.94
2023-01-17T04:55:34.976Z,-0.93
2023-01-17T04:56:37.799Z,-0.92
2023-01-17T04:57:42.148Z,-0.92
2023-01-17T04:58:45.332Z,-0.92
2023-01-17T04:59:47.225Z,-0.93
2023-01-17T05:00:51.048Z,-0.92
2023-01-17T05:01:54.245Z,-0.92
2023-01-17T05:02:56.058Z,-0.93
2023-01-17T05:04:00.136Z,-0.92
2023-01-17T05:05:03.708Z,-0.92
2023-01-17T05:06:06.801Z,-0.93
2023-01-17T05:07:08.745Z,-0.95
2023-01-17T05:08:11.575Z,-0.95
2023-01-17T05:09:14.531Z,-0.96
2023-01-17T05:10:17.126Z,-0.97
2023-01-17T05:11:19.917Z,-0.96
2023-01-17T05:12:22.364Z,-0.95
2023-01-17T05:13:25.312Z,-0.93
2023-01-17T05:14:27.168Z,-0.90
2023-01-17T05:15:30.450Z,-0.89
2023-01-17T05:16:32.231Z,-0.87
2023-01-17T05:17:35.456Z,-0.88
2023-01-17T05:18:37.702Z,-0.88
2023-01-17T05:19:40.729Z,-0.89
2023-01-17T05:20:44.379Z,-0.87
2023-01-17T05:21:49.147Z,-0.86
2023-01-17T05:22:55.462Z,-0.84
2023-01-17T05:23:59.190Z,-0.82
2023-01-17T05:25:00.986Z,-0.79
2023-01-17T05:26:03.706Z,-0.76
2023-01-17T05:27:05.492Z,-0.73
2023-01-17T05:28:09.027Z,-0.72
2023-01-17T05:29:11.166Z,-0.70
2023-01-17T05:30:14.565Z,-0.70
2023-01-17T05:31:17.584Z,-0.70
2023-01-17T05:32:23.275Z,-0.69
2023-01-17T05:33:25.187Z,-0.68
2023-01-17T05:34:27.960Z,-0.68
2023-01-17T05:35:32.504Z,-0.69
2023-01-17T05:36:37.654Z,-0.68
2023-01-17T05:37:39.520Z,-0.69
2023-01-17T05:38:44.141Z,-0.70
2023-01-17T05:39:46.754Z,-0.73
2023-01-17T05:40:49.501Z,-0.77
2023-01-17T05:41:52.224Z,-0.82
2023-01-17T05:42:55.737Z,-0.87
2023-01-17T05:43:58.571Z,-0.89
2023-01-17T05:45:00.333Z,-0.90
2023-01-17T05:46:03.163Z,-0.89
2023-01-17T05:47:04.956Z,-0.90
2023-01-17T05:48:07.847Z,-0.88
2023-01-17T05:49:09.965Z,-0.89
2023-01-17T05:50:18.375Z,-0.91
2023-01-17T05:51:21.099Z,-0.93
2023-01-17T05:52:24.348Z,-0.93
2023-01-17T05:53:27.086Z,-0.93
2023-01-17T05:54:28.926Z,-0.91
2023-01-17T05:55:32.561Z,-0.89
2023-01-17T05:56:34.416Z,-0.89
2023-01-17T05:57:37.227Z,-0.91
2023-01-17T05:58:40.424Z,-0.93
2023-01-17T05:59:42.232Z,-0.93
2023-01-17T06:00:45.358Z,-0.92
2023-01-17T06:01:47.433Z,-0.91
2023-01-17T06:02:50.424Z,-0.91
2023-01-17T06:03:52.219Z,-0.88
2023-01-17T06:04:55.658Z,-0.88
2023-01-17T06:05:57.482Z,-0.87
2023-01-17T06:07:00.231Z,-0.86
2023-01-17T06:08:04.583Z,-0.87
2023-01-17T06:09:06.345Z,-0.83
2023-01-17T06:10:14.366Z,-0.83
2023-01-17T06:11:16.244Z,-0.83
2023-01-17T06:12:20.095Z,-0.82
2023-01-17T06:13:23.288Z,-0.82
2023-01-17T06:14:26.133Z,-0.78
2023-01-17T06:15:27.923Z,-0.76
2023-01-17T06:16:31.218Z,-0.73
2023-01-17T06:17:33.034Z,-0.71
2023-01-17T06:18:35.773Z,-0.69
2023-01-17T06:19:37.506Z,-0.67
2023-01-17T06:20:41.227Z,-0.66
2023-01-17T06:21:43.005Z,-0.66
2023-01-17T06:22:45.806Z,-0.64
2023-01-17T06:23:48.966Z,-0.62
2023-01-17T06:24:51.724Z,-0.63
2023-01-17T06:25:54.757Z,-0.62
2023-01-17T06:26:57.149Z,-0.61
2023-01-17T06:27:59.956Z,-0.61
2023-01-17T06:29:01.776Z,-0.59
2023-01-17T06:30:05.297Z,-0.57
2023-01-17T06:31:08.072Z,-0.57
2023-01-17T06:32:10.894Z,-0.56
2023-01-17T06:33:13.144Z,-0.55
2023-01-17T06:34:15.924Z,-0.53
2023-01-17T06:35:17.659Z,-0.52
2023-01-17T06:36:20.536Z,-0.51
2023-01-17T06:37:22.300Z,-0.49
2023-01-17T06:38:25.007Z,-0.49
2023-01-17T06:39:28.193Z,-0.46
2023-01-17T06:40:31.412Z,-0.45
2023-01-17T06:41:33.436Z,-0.45
2023-01-17T06:42:36.334Z,-0.44
2023-01-17T06:43:38.137Z,-0.45
2023-01-17T06:44:40.956Z,-0.43
2023-01-17T06:45:42.867Z,-0.44
2023-01-17T06:46:47.661Z,-0.44
2023-01-17T06:47:49.464Z,-0.45
2023-01-17T06:48:52.342Z,-0.43
2023-01-17T06:49:54.115Z,-0.43
2023-01-17T06:50:58.852Z,-0.42
2023-01-17T06:52:02.244Z,-0.40
2023-01-17T06:53:05.683Z,-0.40
2023-01-17T06:54:10.066Z,-0.40
2023-01-17T06:55:13.509Z,-0.41
2023-01-17T06:56:16.629Z,-0.42
2023-01-17T06:57:18.411Z,-0.44
2023-01-17T06:58:21.184Z,-0.43
2023-01-17T06:59:22.925Z,-0.42
2023-01-17T07:00:26.035Z,-0.43
2023-01-17T07:01:28.068Z,-0.42
2023-01-17T07:02:30.974Z,-0.40
2023-01-17T07:03:33.197Z,-0.39
2023-01-17T07:04:35.969Z,-0.38
2023-01-17T07:05:37.744Z,-0.37
2023-01-17T07:06:40.668Z,-0.36
2023-01-17T07:07:43.544Z,-0.34
2023-01-17T07:08:47.425Z,-0.33
2023-01-17T07:09:49.217Z,-0.31
2023-01-17T07:10:59.190Z,-0.32
2023-01-17T07:12:02.069Z,-0.31
2023-01-17T07:13:03.850Z,-0.32
2023-01-17T07:14:06.642Z,-0.30
2023-01-17T07:15:09.844Z,-0.31
2023-01-17T07:16:12.583Z,-0.26
2023-01-17T07:17:15.418Z,-0.24
2023-01-17T07:18:20.619Z,-0.20
2023-01-17T07:19:23.495Z,-0.17
2023-01-17T07:20:25.425Z,-0.14
2023-01-17T07:21:28.287Z,-0.11
2023-01-17T07:22:30.099Z,-0.09
2023-01-17T07:23:33.229Z,-0.05
2023-01-17T07:24:37.389Z,-0.02
2023-01-17T07:25:40.146Z,0.01
2023-01-17T07:26:44.299Z,0.03
2023-01-17T07:27:46.309Z,0.06
2023-01-17T07:28:49.125Z,0.07
2023-01-17T07:29:54.069Z,0.09
2023-01-17T07:30:57.367Z,0.10
2023-01-17T07:32:00.157Z,0.12
2023-01-17T07:33:02.198Z,0.15
2023-01-17T07:34:05.190Z,0.16
2023-01-17T07:35:07.625Z,0.18
2023-01-17T07:36:11.430Z,0.18
2023-01-17T07:37:15.207Z,0.19
2023-01-17T07:38:19.363Z,0.21
2023-01-17T07:39:22.769Z,0.22
2023-01-17T07:40:25.714Z,0.23
2023-01-17T07:41:28.490Z,0.24
2023-01-17T07:42:32.678Z,0.26
2023-01-17T07:43:35.534Z,0.28
2023-01-17T07:44:41.328Z,0.29
2023-01-17T07:45:44.042Z,0.31
2023-01-17T07:46:46.816Z,0.34
2023-01-17T07:47:49.981Z,0.36
2023-01-17T07:48:52.842Z,0.38
2023-01-17T07:49:55.206Z,0.40
2023-01-17T07:50:59.229Z,0.43
2023-01-17T07:52:01.898Z,0.46
2023-01-17T07:53:05.059Z,0.47
2023-01-17T07:54:07.760Z,0.48
2023-01-17T07:55:11.216Z,0.49
2023-01-17T07:56:13.164Z,0.51
2023-01-17T07:57:15.921Z,0.53
2023-01-17T07:58:20.218Z,0.53
2023-01-17T07:59:22.046Z,0.55
2023-01-17T08:00:26.247Z,0.57
2023-01-17T08:01:47.767Z,0.60
2023-01-17T08:02:49.936Z,0.62
2023-01-17T08:03:54.780Z,0.63
2023-01-17T08:04:56.569Z,0.64
2023-01-17T08:05:59.635Z,0.65
2023-01-17T08:07:02.004Z,0.65
2023-01-17T08:08:04.985Z,0.66
2023-01-17T08:09:06.964Z,0.67
2023-01-17T08:10:17.789Z,0.68
2023-01-17T08:11:20.571Z,0.70
2023-01-17T08:12:22.533Z,0.72
2023-01-17T08:13:28.951Z,0.75
2023-01-17T08:14:32.484Z,0.78
2023-01-17T08:15:34.300Z,0.82
2023-01-17T08:16:38.095Z,0.86
2023-01-17T08:17:39.892Z,0.90
2023-01-17T08:18:42.774Z,0.92
2023-01-17T08:19:44.855Z,0.95
2023-01-17T08:20:47.637Z,0.98
2023-01-17T08:21:49.865Z,0.98
2023-01-17T08:22:56.468Z,0.98
2023-01-17T08:23:58.234Z,1.01
2023-01-17T08:25:01.241Z,1.02
2023-01-17T08:26:04.072Z,1.05
2023-01-17T08:27:05.901Z,1.07
2023-01-17T08:28:08.732Z,1.09
2023-01-17T08:29:13.104Z,1.12
2023-01-17T08:30:15.099Z,1.13
2023-01-17T08:31:19.842Z,1.14
2023-01-17T08:32:22.014Z,1.15
2023-01-17T08:33:25.005Z,1.15
2023-01-17T08:34:27.833Z,1.13
2023-01-17T08:35:29.633Z,1.12
2023-01-17T08:36:32.520Z,1.13
2023-01-17T08:37:34.758Z,1.14
2023-01-17T08:38:38.100Z,1.13
2023-01-17T08:39:39.879Z,1.13
2023-01-17T08:40:43.209Z,1.14
2023-01-17T08:41:46.028Z,1.16
2023-01-17T08:42:54.404Z,1.15
2023-01-17T08:43:57.563Z,1.16
2023-01-17T08:45:00.857Z,1.16
2023-01-17T08:46:03.630Z,1.16
2023-01-17T08:47:06.723Z,1.16
2023-01-17T08:48:09.930Z,1.19
2023-01-17T08:49:13.475Z,1.21
2023-01-17T08:50:20.498Z,1.21
2023-01-17T08:51:24.848Z,1.22
2023-01-17T08:52:28.067Z,1.24
2023-01-17T08:53:31.394Z,1.26
2023-01-17T08:54:34.184Z,1.28
2023-01-17T08:55:39.953Z,1.29
2023-01-17T08:56:43.575Z,1.31
2023-01-17T08:57:45.350Z,1.34
2023-01-17T08:58:48.149Z,1.40
2023-01-17T08:59:51.345Z,1.46
2023-01-17T09:00:55.572Z,1.52
2023-01-17T09:02:01.224Z,1.58
2023-01-17T09:03:04.441Z,1.63
2023-01-17T09:04:06.274Z,1.68
2023-01-17T09:05:09.426Z,1.72
2023-01-17T09:06:14.307Z,1.78
2023-01-17T09:07:17.346Z,1.83
2023-01-17T09:08:20.084Z,1.89
2023-01-17T09:09:23.452Z,1.94
2023-01-17T09:10:25.305Z,1.95
2023-01-17T09:11:28.063Z,1.98
2023-01-17T09:12:33.095Z,2.00
2023-01-17T09:13:35.404Z,2.03
2023-01-17T09:14:38.764Z,2.07
2023-01-17T09:15:41.839Z,2.09
2023-01-17T09:16:46.120Z,2.12
2023-01-17T09:17:48.975Z,2.16
2023-01-17T09:18:53.856Z,2.18
2023-01-17T09:19:56.667Z,2.23
2023-01-17T09:20:59.980Z,2.25
2023-01-17T09:22:02.962Z,2.26
2023-01-17T09:23:04.759Z,2.27
2023-01-17T09:24:07.882Z,2.29
2023-01-17T09:25:10.437Z,2.30
2023-01-17T09:26:19.295Z,2.30
2023-01-17T09:27:22.065Z,2.32
2023-01-17T09:28:25.339Z,2.33
2023-01-17T09:29:27.133Z,2.32
2023-01-17T09:30:29.938Z,2.33
2023-01-17T09:31:31.872Z,2.33
2023-01-17T09:32:36.181Z,2.33
2023-01-17T09:33:38.049Z,2.33
2023-01-17T09:34:40.874Z,2.34
2023-01-17T09:35:42.738Z,2.34
2023-01-17T09:36:45.763Z,2.34
2023-01-17T09:37:49.349Z,2.37
2023-01-17T09:38:57.112Z,2.40
2023-01-17T09:39:59.868Z,2.44
2023-01-17T09:41:02.853Z,2.45
2023-01-17T09:42:18.578Z,2.50
2023-01-17T09:43:25.535Z,2.54
2023-01-17T09:44:29.931Z,2.58
2023-01-17T09:45:34.562Z,2.62
2023-01-17T09:46:40.988Z,2.69
2023-01-17T09:47:47.649Z,2.73
2023-01-17T09:48:59.731Z,2.79
2023-01-17T09:50:15.402Z,2.83
2023-01-17T09:51:22.159Z,2.86
2023-01-17T09:52:26.146Z,2.91
2023-01-17T09:53:32.549Z,2.97
2023-01-17T09:54:40.003Z,3.03
2023-01-17T09:55:44.124Z,3.09
2023-01-17T09:56:50.604Z,3.15
2023-01-17T09:58:00.866Z,3.18
2023-01-17T09:59:12.091Z,3.22
2023-01-17T10:00:27.473Z,3.24
2023-01-17T10:01:36.176Z,3.27
2023-01-17T10:02:49.130Z,3.30
2023-01-17T10:04:05.999Z,3.33
2023-01-17T10:05:30.938Z,3.38
2023-01-17T10:06:44.292Z,3.42
2023-01-17T10:07:56.129Z,3.43
2023-01-17T10:09:24.669Z,3.47
2023-01-17T10:10:34.573Z,3.47
2023-01-17T10:11:47.053Z,3.50
2023-01-17T10:12:56.141Z,3.52
2023-01-17T10:14:07.360Z,3.55
2023-01-17T10:15:27.996Z,3.58
2023-01-17T10:16:38.991Z,3.61
2023-01-17T10:17:50.244Z,3.63
2023-01-17T10:19:12.523Z,3.66
2023-01-17T10:20:34.066Z,3.69
2023-01-17T10:21:49.462Z,3.74
2023-01-17T10:23:03.823Z,3.79
2023-01-17T10:24:25.826Z,3.82
2023-01-17T10:25:44.745Z,3.84
2023-01-17T10:26:49.910Z,3.83
2023-01-17T10:27:57.041Z,3.84
2023-01-17T10:29:02.280Z,3.83
2023-01-17T10:30:17.312Z,3.82
2023-01-17T10:31:23.287Z,3.82
2023-01-17T10:32:29.099Z,3.82
2023-01-17T10:33:40.772Z,3.82
2023-01-17T10:34:45.410Z,3.83
2023-01-17T10:35:56.943Z,3.85
2023-01-17T10:37:02.006Z,3.86
2023-01-17T10:38:07.111Z,3.87
2023-01-17T10:39:16.371Z,3.89
2023-01-17T10:40:24.225Z,3.93
2023-01-17T10:41:30.667Z,3.96
2023-01-17T10:42:42.269Z,3.99
2023-01-17T10:43:49.289Z,4.04
2023-01-17T10:44:56.993Z,4.07
2023-01-17T10:45:58.853Z,4.13
2023-01-17T10:47:08.449Z,4.16
2023-01-17T10:48:16.020Z,4.21
2023-01-17T10:49:23.318Z,4.27
2023-01-17T10:50:26.478Z,4.29
2023-01-17T10:51:43.728Z,4.35
2023-01-17T10:52:52.699Z,4.41
2023-01-17T10:54:04.110Z,4.46
2023-01-17T10:55:13.051Z,4.52
2023-01-17T10:56:17.376Z,4.58
2023-01-17T10:57:22.240Z,4.63
2023-01-17T10:58:25.193Z,4.69
2023-01-17T10:59:30.548Z,4.73
2023-01-17T11:00:43.794Z,4.79
2023-01-17T11:01:46.760Z,4.83
2023-01-17T11:02:50.765Z,4.87
2023-01-17T11:03:55.303Z,4.91
2023-01-17T11:05:05.686Z,4.93
2023-01-17T11:06:15.395Z,4.94
2023-01-17T11:07:19.824Z,4.96
2023-01-17T11:08:22.737Z,5.00
2023-01-17T11:09:40.781Z,5.02
2023-01-17T11:10:44.986Z,5.05
2023-01-17T11:11:49.459Z,5.08
2023-01-17T11:12:52.418Z,5.11
2023-01-17T11:13:55.008Z,5.12
2023-01-17T11:15:02.401Z,5.15
2023-01-17T11:16:08.283Z,5.16
2023-01-17T11:17:12.234Z,5.18
2023-01-17T11:18:16.179Z,5.20
2023-01-17T11:19:26.611Z,5.19
2023-01-17T11:20:34.435Z,5.23
2023-01-17T11:21:40.084Z,5.22
2023-01-17T11:22:44.923Z,5.24
2023-01-17T11:23:48.527Z,5.23
2023-01-17T11:24:53.140Z,5.23
2023-01-17T11:25:58.076Z,5.24
2023-01-17T11:27:00.106Z,5.24
2023-01-17T11:28:05.955Z,5.25
2023-01-17T11:29:15.304Z,5.27
2023-01-17T11:30:19.974Z,5.29
2023-01-17T11:31:27.349Z,5.31
2023-01-17T11:32:32.706Z,5.36
2023-01-17T11:33:45.046Z,5.37
2023-01-17T11:35:06.634Z,5.39
2023-01-17T11:36:17.549Z,5.38
2023-01-17T11:37:22.787Z,5.39
2023-01-17T11:38:25.962Z,5.39
2023-01-17T11:39:28.943Z,5.43
2023-01-17T11:40:33.616Z,5.45
2023-01-17T11:41:37.889Z,5.47
2023-01-17T11:42:39.731Z,5.48
2023-01-17T11:43:51.651Z,5.49
2023-01-17T11:44:54.947Z,5.48
2023-01-17T11:46:06.097Z,5.44
2023-01-17T11:47:18.902Z,5.46
2023-01-17T11:48:21.931Z,5.46
2023-01-17T11:49:26.665Z,5.48
2023-01-17T11:50:29.153Z,5.47
2023-01-17T11:51:35.017Z,5.49
2023-01-17T11:52:39.074Z,5.53
2023-01-17T11:53:47.007Z,5.57
2023-01-17T11:54:50.913Z,5.59
2023-01-17T11:55:55.564Z,5.63
2023-01-17T11:56:58.578Z,5.65
2023-01-17T11:58:00.356Z,5.67
2023-01-17T11:59:17.457Z,5.68
2023-01-17T12:00:24.385Z,5.70
2023-01-17T12:01:34.865Z,5.71
2023-01-17T12:02:52.162Z,5.74
2023-01-17T12:04:18.266Z,5.77
2023-01-17T12:05:33.187Z,5.77
2023-01-17T12:06:56.763Z,5.78
2023-01-17T12:08:08.345Z,5.77
2023-01-17T12:09:22.853Z,5.78
2023-01-17T12:10:30.580Z,5.79
2023-01-17T12:12:00.289Z,5.85
2023-01-17T12:13:29.168Z,5.98
2023-01-17T12:14:37.556Z,6.08
2023-01-17T12:15:52.007Z,6.20
2023-01-17T12:17:01.738Z,6.30
2023-01-17T12:18:18.901Z,6.42
2023-01-17T12:19:32.334Z,6.53
2023-01-17T12:20:41.462Z,6.64
2023-01-17T12:21:50.976Z,6.74
2023-01-17T12:23:14.150Z,6.80
2023-01-17T12:24:31.906Z,6.83
2023-01-17T12:25:49.031Z,6.89
2023-01-17T12:26:57.813Z,6.98
2023-01-17T12:28:10.027Z,7.03
2023-01-17T12:29:44.137Z,7.07
2023-01-17T12:30:59.232Z,7.10
2023-01-17T12:32:12.946Z,7.14
2023-01-17T12:33:20.012Z,7.13
2023-01-17T12:34:25.721Z,7.06
2023-01-17T12:35:32.444Z,7.06
2023-01-17T12:36:41.553Z,7.05
2023-01-17T12:37:52.666Z,7.00
2023-01-17T12:39:02.484Z,6.92
2023-01-17T12:40:14.782Z,6.86
2023-01-17T12:41:20.931Z,6.77
2023-01-17T12:42:25.442Z,6.71
2023-01-17T12:43:32.127Z,6.64
2023-01-17T12:44:42.645Z,6.61
2023-01-17T12:45:46.689Z,6.59
2023-01-17T12:46:51.920Z,6.57
2023-01-17T12:48:00.044Z,6.56
2023-01-17T12:49:05.615Z,6.55
2023-01-17T12:50:19.276Z,6.57
2023-01-17T12:51:27.714Z,6.58
2023-01-17T12:52:42.483Z,6.60
2023-01-17T12:53:52.526Z,6.62
2023-01-17T12:54:57.905Z,6.67
2023-01-17T12:56:04.965Z,6.68
2023-01-17T12:57:13.882Z,6.64
2023-01-17T12:58:21.322Z,6.63
2023-01-17T12:59:27.450Z,6.64
2023-01-17T13:00:32.315Z,6.55
2023-01-17T13:01:39.635Z,6.50
2023-01-17T13:02:47.415Z,6.48
2023-01-17T13:04:00.565Z,6.50
2023-01-17T13:05:07.655Z,6.57
2023-01-17T13:06:16.158Z,6.65
2023-01-17T13:07:25.487Z,6.70
2023-01-17T13:08:34.257Z,6.73
2023-01-17T13:09:43.901Z,6.80
2023-01-17T13:10:51.222Z,6.91
2023-01-17T13:11:57.579Z,7.02
2023-01-17T13:13:03.767Z,7.12
2023-01-17T13:14:09.913Z,7.20
2023-01-17T13:15:14.849Z,7.26
2023-01-17T13:16:21.976Z,7.33
2023-01-17T13:17:27.348Z,7.44
2023-01-17T13:18:33.178Z,7.60
2023-01-17T13:19:43.585Z,7.72
2023-01-17T13:21:06.101Z,7.87
2023-01-17T13:22:17.197Z,7.99
2023-01-17T13:23:28.699Z,8.02
2023-01-17T13:24:41.492Z,8.03
2023-01-17T13:25:45.941Z,8.10
2023-01-17T13:27:25.946Z,8.19
2023-01-17T13:28:37.489Z,8.22
2023-01-17T13:29:48.978Z,8.30
2023-01-17T13:31:09.975Z,8.36
2023-01-17T13:32:25.689Z,8.41
2023-01-17T13:33:35.661Z,8.49
2023-01-17T13:34:53.895Z,8.55
2023-01-17T13:36:07.012Z,8.57
2023-01-17T13:37:21.685Z,8.59
2023-01-17T13:38:35.813Z,8.60
2023-01-17T13:39:55.239Z,8.64
2023-01-17T13:41:01.311Z,8.59
2023-01-17T13:42:10.918Z,8.55
2023-01-17T13:43:15.034Z,8.51
2023-01-17T13:44:23.132Z,8.38
2023-01-17T13:45:28.611Z,8.10
2023-01-17T13:46:31.485Z,7.89
2023-01-17T13:47:42.262Z,7.75
2023-01-17T13:48:44.982Z,7.70
2023-01-17T13:49:49.442Z,7.64
2023-01-17T13:50:55.479Z,7.63
2023-01-17T13:52:02.815Z,7.68
2023-01-17T13:53:38.769Z,7.72
2023-01-17T13:54:45.790Z,7.74
2023-01-17T13:55:53.207Z,7.72
2023-01-17T13:57:44.058Z,7.71
2023-01-17T13:58:58.236Z,7.61
2023-01-17T14:00:31.770Z,7.59
2023-01-17T14:01:53.585Z,7.65
2023-01-17T14:02:56.452Z,7.63
2023-01-17T14:04:06.361Z,7.65
2023-01-17T14:05:13.366Z,7.55
2023-01-17T14:06:35.143Z,7.32
2023-01-17T14:07:46.057Z,7.15
2023-01-17T14:08:48.281Z,7.02
2023-01-17T14:09:51.563Z,6.90
2023-01-17T14:10:55.102Z,6.78
2023-01-17T14:12:00.135Z,6.65
2023-01-17T14:13:04.991Z,6.52
2023-01-17T14:14:50.544Z,6.38
2023-01-17T14:15:53.827Z,6.27
2023-01-17T14:16:55.868Z,6.24
2023-01-17T14:18:00.363Z,6.18
2023-01-17T14:19:02.418Z,6.10
2023-01-17T14:20:48.857Z,5.99
2023-01-17T14:21:52.037Z,5.85
2023-01-17T14:22:55.559Z,5.78
2023-01-17T14:24:03.799Z,5.70
2023-01-17T14:25:14.965Z,5.60
2023-01-17T14:26:29.980Z,5.52
2023-01-17T14:27:35.219Z,5.42
2023-01-17T14:28:37.109Z,5.37
2023-01-17T14:29:59.009Z,5.28
2023-01-17T14:31:03.073Z,5.21
2023-01-17T14:32:09.300Z,5.15
2023-01-17T14:33:17.351Z,5.08
2023-01-17T14:34:21.759Z,5.00
2023-01-17T14:35:25.442Z,4.94
2023-01-17T14:36:30.344Z,4.87
2023-01-17T14:37:47.728Z,4.78
2023-01-17T14:38:49.622Z,4.71
2023-01-17T14:39:52.399Z,4.65
2023-01-17T14:40:57.534Z,4.60
2023-01-17T14:42:02.009Z,4.53
2023-01-17T14:43:06.150Z,4.46